DB0BGL Weather Reports


Display with metric or nautical units.
time (UTC)temp
F
wind
direction
speed
MPH
gust
MPH
rain 1hr
in
rain 24hr
in
rain mn
in
humidity
%
barometer
mb
20240621144839 62 33 3.0 3.0 0.00 0.00 0.00 91
20240621143838 63 9 0.0 0.0 0.00 0.00 0.00 86
20240621142838 65 9 0.0 0.0 0.00 0.00 0.00 80
20240621141837 67 9 0.0 0.0 0.00 0.00 0.00 79
20240621140836 68 9 0.0 0.0 0.00 0.00 0.00 78
20240621135839 69 9 0.0 0.0 0.00 0.00 0.00 74
20240621134835 72 33 3.0 3.0 0.00 0.00 0.00 71
20240621133835 69 28 0.0 0.0 0.00 0.00 0.00 76
20240621132834 66 32 0.0 0.0 0.00 0.00 0.00 82
20240621131834 61 35 5.0 11.0 0.00 0.00 0.00 90
20240621130833 60 26 10.0 17.0 0.00 0.00 0.00 97
20240621125832 62 39 6.0 8.0 0.00 0.00 0.00 87
20240621124832 65 23 0.0 0.0 0.00 0.00 0.00 79
20240621123831 67 33 0.0 0.0 0.00 0.00 0.00 67
20240621122831 68 33 0.0 0.0 0.00 0.00 0.00 68
20240621121830 67 33 0.0 0.0 0.00 0.00 0.00 72
20240621120830 62 33 0.0 5.0 0.00 0.00 0.00 80
20240621115829 65 29 0.0 7.0 0.00 0.00 0.00 78
20240621114828 72 30 1.0 6.0 0.00 0.00 0.00 59
20240621113828 76 30 0.0 0.0 0.00 0.00 0.00 53
20240621112828 77 30 0.0 0.0 0.00 0.00 0.00 48
20240621111827 78 30 0.0 0.0 0.00 0.00 0.00 48
20240621110826 79 30 0.0 0.0 0.00 0.00 0.00 43
20240621105826 81 30 0.0 0.0 0.00 0.00 0.00 37
20240621104825 82 30 0.0 0.0 0.00 0.00 0.00 40
20240621103825 83 30 0.0 4.0 0.00 0.00 0.00 25
20240621102824 83 25 0.0 0.0 0.00 0.00 0.00 29
20240621101823 82 25 0.0 0.0 0.00 0.00 0.00 31
20240621100823 83 25 0.0 0.0 0.00 0.00 0.00 30
20240621095822 81 25 0.0 5.0 0.00 0.00 0.00 28
20240621094822 80 36 0.0 0.0 0.00 0.00 0.00 31
20240621093822 77 36 0.0 0.0 0.00 0.00 0.00 30
20240621093121 75 36 0.0 0.0 0.00 0.00 0.00 33
20240621092821 75 36 0.0 0.0 0.00 0.00 0.00 33
20240621091821 73 36 0.0 0.0 0.00 0.00 0.00 35
20240621090819 72 43 5.0 5.0 0.00 0.00 0.00 33
20240621090018 73 14 0.0 7.0 0.00 0.00 0.00 35
20240621085819 73 14 0.0 7.0 0.00 0.00 0.00 35
20240621084818 72 14 0.0 0.0 0.00 0.00 0.00 35
20240621083818 71 11 0.0 1.0 0.00 0.00 0.00 36
20240621083051 69 14 0.0 7.0 0.00 0.00 0.00 39
20240621082817 69 14 0.0 7.0 0.00 0.00 0.00 39
20240621081818 69 40 8.0 12.0 0.00 0.00 0.00 39
20240621080816 69 43 4.0 9.0 0.00 0.00 0.00 39
20240621075817 68 37 7.0 7.0 0.00 0.00 0.00 40
20240621074815 68 35 5.0 5.0 0.00 0.00 0.00 41
20240621074524 68 50 0.0 5.0 0.00 0.00 0.00 40
20240621073814 68 50 0.0 5.0 0.00 0.00 0.00 40
20240621072814 68 40 4.0 6.0 0.00 0.00 0.00 40
20240621071813 68 36 3.0 6.0 0.00 0.00 0.00 39
20240621070813 69 35 3.0 9.0 0.00 0.00 0.00 38
20240621065812 69 22 0.0 9.0 0.00 0.00 0.00 37
20240621064813 70 32 0.0 0.0 0.00 0.00 0.00 37
20240621063812 70 32 0.0 0.0 0.00 0.00 0.00 36
20240621062810 69 32 0.0 9.0 0.00 0.00 0.00 37
20240621061811 69 39 3.0 7.0 0.00 0.00 0.00 37
20240621060809 69 25 0.0 0.0 0.00 0.00 0.00 38
20240621055809 69 25 0.0 8.0 0.00 0.00 0.00 38
20240621054808 68 40 0.0 3.0 0.00 0.00 0.00 38
20240621053807 68 39 6.0 10.0 0.00 0.00 0.00 36
20240621052807 68 42 7.0 7.0 0.00 0.00 0.00 37
20240621052456 69 42 5.0 12.0 0.00 0.00 0.00 35
20240621051814 69 42 5.0 12.0 0.00 0.00 0.00 35
20240621050806 69 26 0.0 0.0 0.00 0.00 0.00 36
20240621045805 68 39 0.0 4.0 0.00 0.00 0.00 37
20240621044806 68 40 8.0 8.0 0.00 0.00 0.00 37
20240621043804 69 21 0.0 0.0 0.00 0.00 0.00 38
20240621042803 69 45 7.0 7.0 0.00 0.00 0.00 37
20240621041803 69 19 0.0 0.0 0.00 0.00 0.00 37
20240621040802 69 39 0.0 0.0 0.00 0.00 0.00 37
20240620191348 61 47 0.0 0.0 0.00 0.00 0.00 82
20240620190346 61 47 0.0 2.0 0.00 0.00 0.00 88
20240620185346 61 39 0.0 5.0 0.00 0.00 0.00 88
20240620184345 62 33 0.0 0.0 0.00 0.00 0.00 91
20240620183345 62 47 2.0 4.0 0.00 0.00 0.00 90
20240620182344 63 40 0.0 0.0 0.00 0.00 0.00 88
20240620181344 65 40 0.0 3.0 0.00 0.00 0.00 84
20240620180343 65 22 0.0 0.0 0.00 0.00 0.00 83
20240620175342 65 22 0.0 0.0 0.00 0.00 0.00 85
20240620174342 66 22 0.0 0.0 0.00 0.00 0.00 80
20240620173341 66 22 0.0 0.0 0.00 0.00 0.00 82
20240620172341 65 22 0.0 0.0 0.00 0.00 0.00 89
20240620171340 62 22 0.0 0.0 0.00 0.00 0.00 93
20240620170339 61 22 0.0 0.0 0.00 0.00 0.00 97
20240620165339 61 43 1.0 2.0 0.00 0.00 0.00 98
20240620164338 62 36 1.0 5.0 0.00 0.00 0.00 93
20240620163338 64 57 0.0 0.0 0.00 0.00 0.00 92
20240620162337 64 57 0.0 0.0 0.00 0.00 0.00 93
20240620161337 63 57 0.0 0.0 0.00 0.00 0.00 94
20240620160336 64 33 0.0 6.0 0.00 0.00 0.00 94
20240620155335 65 40 0.0 0.0 0.00 0.00 0.00 89
20240620154335 66 16 0.0 2.0 0.00 0.00 0.00 85
20240620153334 67 46 3.0 5.0 0.00 0.00 0.00 82
20240620152555 70 42 0.0 0.0 0.00 0.00 0.00 74
20240620152334 70 42 0.0 0.0 0.00 0.00 0.00 74
20240620151333 74 42 0.0 0.0 0.00 0.00 0.00 66
20240620150333 77 42 0.0 0.0 0.00 0.00 0.00 59